createdAt,value
2018-12-18T20:48:49.375Z,0.90
2018-12-18T20:51:17.571Z,0.90
2018-12-18T20:53:45.743Z,0.90
2018-12-18T20:56:13.923Z,0.90
2018-12-18T20:58:42.083Z,0.90
2018-12-18T21:01:10.260Z,0.80
2018-12-18T21:03:38.437Z,0.70
2018-12-18T21:06:06.773Z,0.70
2018-12-18T21:08:34.952Z,0.80
2018-12-18T21:11:03.747Z,0.70
2018-12-18T21:13:32.285Z,0.80
2018-12-18T21:16:00.480Z,0.80
2018-12-18T21:18:28.654Z,0.90
2018-12-18T21:20:56.831Z,0.80
2018-12-18T21:23:25.022Z,0.80
2018-12-18T21:25:53.411Z,0.80
2018-12-18T21:28:21.800Z,0.70
2018-12-18T21:30:49.999Z,0.60
2018-12-18T21:33:18.193Z,0.50
2018-12-18T21:35:46.884Z,0.40
2018-12-18T21:38:15.145Z,0.20
2018-12-18T21:40:43.483Z,0.00
2018-12-18T21:43:11.663Z,-0.10
2018-12-18T21:45:39.851Z,-0.30
2018-12-18T21:48:08.053Z,-0.40
2018-12-18T21:50:36.396Z,-0.40
2018-12-18T21:53:04.849Z,-0.50
2018-12-18T21:55:33.128Z,-0.60
2018-12-18T21:58:01.311Z,-0.70
2018-12-18T22:00:29.526Z,-0.70
2018-12-18T22:02:57.711Z,-0.80
2018-12-18T22:05:25.972Z,-0.80
2018-12-18T22:07:54.221Z,-0.90
2018-12-18T22:10:22.385Z,-1.00
2018-12-18T22:12:50.556Z,-1.00
2018-12-18T22:15:18.746Z,-1.00
2018-12-18T22:17:47.023Z,-0.90
2018-12-18T22:20:15.192Z,-0.90
2018-12-18T22:22:43.383Z,-0.90
2018-12-18T22:25:11.558Z,-1.00
2018-12-18T22:27:39.907Z,-1.00
2018-12-18T22:30:08.665Z,-1.00
2018-12-18T22:32:36.827Z,-0.90
2018-12-18T22:35:05.165Z,-0.90
2018-12-18T22:37:33.328Z,-0.80
2018-12-18T22:40:01.508Z,-0.90
2018-12-18T22:42:29.674Z,-0.80
2018-12-18T22:44:57.928Z,-0.80
2018-12-18T22:47:26.095Z,-0.80
2018-12-18T22:49:54.274Z,-0.80
2018-12-18T22:52:22.487Z,-0.80
2018-12-18T22:54:50.661Z,-0.80
2018-12-18T22:57:18.819Z,-0.90
2018-12-18T22:59:47.015Z,-1.00
2018-12-18T23:02:16.063Z,-1.10
2018-12-18T23:04:45.142Z,-1.10
2018-12-18T23:07:13.375Z,-1.20
2018-12-18T23:09:41.546Z,-1.30
2018-12-18T23:12:09.706Z,-1.40
2018-12-18T23:14:38.010Z,-1.50
2018-12-18T23:17:06.167Z,-1.50
2018-12-18T23:19:34.422Z,-1.50
2018-12-18T23:22:02.586Z,-1.70
2018-12-18T23:24:30.763Z,-1.80
2018-12-18T23:26:58.923Z,-1.80
2018-12-18T23:29:27.075Z,-1.90
2018-12-18T23:31:55.264Z,-1.90
2018-12-18T23:34:23.419Z,-1.90
2018-12-18T23:36:51.583Z,-1.90
2018-12-18T23:39:19.740Z,-1.90
2018-12-18T23:41:48.188Z,-1.90
2018-12-18T23:44:16.350Z,-1.80
2018-12-18T23:46:44.590Z,-1.70
2018-12-18T23:49:12.731Z,-1.60
2018-12-18T23:51:40.904Z,-1.50
2018-12-18T23:54:09.063Z,-1.50
2018-12-18T23:56:37.228Z,-1.60
2018-12-18T23:59:05.474Z,-1.50
